Boylston, New York
Current Conditions -  °F | °C
As of 12:56 PM on Saturday 20 Dec 2014 (Local Time) from KART Reporting Station
Clear Clear  
Wind Chill: 28°   Ceiling: Unl
Heat Index: 28°   Visibility: 10mi
Dew Point: 16°   Wind: 3mph
Humidity: 61%   Direction: 60°ENE
Pressure: 30.29"   Gusts: NA
Location:  43.6481°N, 75.9881°W
Report Text: KART 201756Z AUTO 06003KT 10SM CLR M02/M09 A3029 RMK AO2 SLP265 T10221089 11022 21106 56010
Loading
Personal Weather Stations






























Interactive Weather Map New forecast layout! Learn more

10-Day Weather Forecast

Advertisements
Track Severe Weather on mobile